createdAt,value
2018-09-01T00:00:23.846Z,1020.85
2018-09-01T00:01:23.907Z,1020.85
2018-09-01T00:02:23.968Z,1020.81
2018-09-01T00:03:24.027Z,1020.84
2018-09-01T00:04:24.095Z,1020.84
2018-09-01T00:05:24.268Z,1020.82
2018-09-01T00:06:24.215Z,1020.84
2018-09-01T00:07:24.329Z,1020.83
2018-09-01T00:08:24.345Z,1020.84
2018-09-01T00:09:24.403Z,1020.86
2018-09-01T00:10:24.475Z,1020.86
2018-09-01T00:11:24.540Z,1020.85
2018-09-01T00:12:24.595Z,1020.85
2018-09-01T00:13:24.659Z,1020.89
2018-09-01T00:14:24.719Z,1020.93
2018-09-01T00:15:24.791Z,1020.88
2018-09-01T00:16:24.851Z,1020.90
2018-09-01T00:17:24.907Z,1020.91
2018-09-01T00:18:24.967Z,1020.89
2018-09-01T00:19:25.045Z,1020.90
2018-09-01T00:20:25.203Z,1020.93
2018-09-01T00:21:25.159Z,1020.97
2018-09-01T00:22:25.223Z,1020.93
2018-09-01T00:23:25.288Z,1020.93
2018-09-01T00:24:25.348Z,1020.93
2018-09-01T00:25:25.415Z,1020.96
2018-09-01T00:26:25.480Z,1020.94
2018-09-01T00:27:25.536Z,1020.93
2018-09-01T00:28:25.610Z,1021.00
2018-09-01T00:29:25.664Z,1020.99
2018-09-01T00:30:25.735Z,1020.99
2018-09-01T00:31:25.796Z,1021.00
2018-09-01T00:32:25.852Z,1020.96
2018-09-01T00:33:25.916Z,1020.97
2018-09-01T00:34:25.977Z,1020.99
2018-09-01T00:35:26.048Z,1020.97
2018-09-01T00:36:26.109Z,1021.00
2018-09-01T00:37:26.256Z,1021.03
2018-09-01T00:38:26.228Z,1021.03
2018-09-01T00:39:26.293Z,1021.05
2018-09-01T00:40:26.364Z,1021.09
2018-09-01T00:41:26.428Z,1021.11
2018-09-01T00:42:26.480Z,1021.10
2018-09-01T00:43:26.544Z,1021.09
2018-09-01T00:44:26.605Z,1021.08
2018-09-01T00:45:26.672Z,1021.10
2018-09-01T00:46:26.736Z,1021.10
2018-09-01T00:47:26.793Z,1021.11
2018-09-01T00:48:26.858Z,1021.09
2018-09-01T00:49:26.917Z,1021.12
2018-09-01T00:50:26.995Z,1021.12
2018-09-01T00:51:27.052Z,1021.11
2018-09-01T00:52:27.109Z,1021.11
2018-09-01T00:53:27.168Z,1021.12
2018-09-01T00:54:27.237Z,1021.13
2018-09-01T00:55:27.389Z,1021.14
2018-09-01T00:56:27.357Z,1021.11
2018-09-01T00:57:27.421Z,1021.16
2018-09-01T00:58:27.485Z,1021.15
2018-09-01T00:59:27.545Z,1021.15
2018-09-01T01:00:27.617Z,1021.13
2018-09-01T01:01:27.681Z,1021.15
2018-09-01T01:02:27.733Z,1021.15
2018-09-01T01:03:27.797Z,1021.17
2018-09-01T01:04:27.861Z,1021.10
2018-09-01T01:05:27.929Z,1021.14
2018-09-01T01:06:27.993Z,1021.15
2018-09-01T01:07:28.049Z,1021.15
2018-09-01T01:08:28.109Z,1021.16
2018-09-01T01:09:28.181Z,1021.15
2018-09-01T01:10:28.746Z,1021.12
2018-09-01T01:11:28.298Z,1021.16
2018-09-01T01:12:28.362Z,1021.15
2018-09-01T01:13:28.421Z,1021.13
2018-09-01T01:14:28.485Z,1021.13
2018-09-01T01:15:28.550Z,1021.14
2018-09-01T01:16:28.706Z,1021.16
2018-09-01T01:17:28.673Z,1021.13
2018-09-01T01:18:28.738Z,1021.15
2018-09-01T01:19:28.802Z,1021.14
2018-09-01T01:20:28.862Z,1021.18
2018-09-01T01:21:28.930Z,1021.19
2018-09-01T01:22:28.994Z,1021.16
2018-09-01T01:23:29.050Z,1021.19
2018-09-01T01:24:29.114Z,1021.18
2018-09-01T01:25:29.173Z,1021.20
2018-09-01T01:26:29.237Z,1021.14
2018-09-01T01:27:29.598Z,1021.12
2018-09-01T01:28:29.362Z,1021.11
2018-09-01T01:29:29.426Z,1021.11
2018-09-01T01:30:29.490Z,1021.15
2018-09-01T01:31:29.556Z,1021.15
2018-09-01T01:32:29.626Z,1021.19
2018-09-01T01:33:29.682Z,1021.13
2018-09-01T01:34:29.739Z,1021.15
2018-09-01T01:35:29.803Z,1021.15
2018-09-01T01:36:29.866Z,1021.20
2018-09-01T01:37:29.934Z,1021.19
2018-09-01T01:38:29.998Z,1021.20
2018-09-01T01:39:30.046Z,1021.22
2018-09-01T01:40:30.115Z,1021.18
2018-09-01T01:41:30.178Z,1021.21
2018-09-01T01:42:30.347Z,1021.18
2018-09-01T01:43:30.302Z,1021.22
2018-09-01T01:44:30.367Z,1021.22
2018-09-01T01:45:30.428Z,1021.19
2018-09-01T01:46:30.495Z,1021.18
2018-09-01T01:47:30.559Z,1021.21
2018-09-01T01:48:30.624Z,1021.19
2018-09-01T01:49:30.681Z,1021.20
2018-09-01T01:50:30.739Z,1021.16
2018-09-01T01:51:30.808Z,1021.16
2018-09-01T01:52:30.871Z,1021.15
2018-09-01T01:53:30.935Z,1021.12
2018-09-01T01:54:30.991Z,1021.17
2018-09-01T01:55:31.051Z,1021.13
2018-09-01T01:56:31.115Z,1021.14
2018-09-01T01:57:31.195Z,1021.15
2018-09-01T01:58:31.239Z,1021.13
2018-09-01T01:59:31.304Z,1021.13
2018-09-01T02:00:31.374Z,1021.16
2018-09-01T02:01:31.428Z,1021.17
2018-09-01T02:02:31.496Z,1021.12
2018-09-01T02:03:31.568Z,1021.12
2018-09-01T02:04:31.616Z,1021.19
2018-09-01T02:05:31.676Z,1021.12
2018-09-01T02:06:31.745Z,1021.14
2018-09-01T02:07:31.807Z,1021.15
2018-09-01T02:08:31.871Z,1021.14
2018-09-01T02:09:31.927Z,1021.15
2018-09-01T02:10:31.995Z,1021.16
2018-09-01T02:11:32.051Z,1021.15
2018-09-01T02:12:32.432Z,1021.14
2018-09-01T02:13:32.176Z,1021.15
2018-09-01T02:14:32.240Z,1021.12
2018-09-01T02:15:32.304Z,1021.15
2018-09-01T02:16:32.364Z,1021.14
2018-09-01T02:17:32.428Z,1021.19
2018-09-01T02:18:32.755Z,1021.16
2018-09-01T02:19:32.556Z,1021.15
2018-09-01T02:20:32.616Z,1021.13
2018-09-01T02:21:32.680Z,1021.13
2018-09-01T02:22:32.744Z,1021.13
2018-09-01T02:23:32.808Z,1021.14
2018-09-01T02:24:32.872Z,1021.12
2018-09-01T02:25:32.928Z,1021.12
2018-09-01T02:26:32.992Z,1021.15
2018-09-01T02:27:33.052Z,1021.16
2018-09-01T02:28:33.224Z,1021.14
2018-09-01T02:29:33.176Z,1021.13
2018-09-01T02:30:33.244Z,1021.13
2018-09-01T02:31:33.306Z,1021.16
2018-09-01T02:32:33.365Z,1021.13
2018-09-01T02:33:33.433Z,1021.16
2018-09-01T02:34:33.499Z,1021.12
2018-09-01T02:35:33.553Z,1021.10
2018-09-01T02:36:33.612Z,1021.14
2018-09-01T02:37:33.676Z,1021.13
2018-09-01T02:38:33.749Z,1021.13
2018-09-01T02:39:33.808Z,1021.14
2018-09-01T02:40:33.875Z,1021.15
2018-09-01T02:41:33.928Z,1021.15
2018-09-01T02:42:33.989Z,1021.17
2018-09-01T02:43:34.061Z,1021.16
2018-09-01T02:44:34.121Z,1021.16
2018-09-01T02:45:34.177Z,1021.20
2018-09-01T02:46:34.241Z,1021.19
2018-09-01T02:47:34.301Z,1021.17
2018-09-01T02:48:34.373Z,1021.22
2018-09-01T02:49:34.429Z,1021.19
2018-09-01T02:50:34.489Z,1021.15
2018-09-01T02:51:34.549Z,1021.13
2018-09-01T02:52:34.613Z,1021.18
2018-09-01T02:53:34.682Z,1021.17
2018-09-01T02:54:34.741Z,1021.16
2018-09-01T02:55:34.797Z,1021.21
2018-09-01T02:56:34.863Z,1021.17
2018-09-01T02:57:34.925Z,1021.17
2018-09-01T02:58:34.993Z,1021.15
2018-09-01T02:59:35.054Z,1021.23
2018-09-01T03:00:35.117Z,1021.19
2018-09-01T03:01:35.175Z,1021.19
2018-09-01T03:02:35.238Z,1021.19
2018-09-01T03:03:35.298Z,1021.20
2018-09-01T03:04:35.626Z,1021.15
2018-09-01T03:05:35.421Z,1021.18
2018-09-01T03:06:35.493Z,1021.20
2018-09-01T03:07:35.554Z,1021.19
2018-09-01T03:08:35.610Z,1021.22
2018-09-01T03:09:35.681Z,1021.22
2018-09-01T03:10:35.741Z,1021.18
2018-09-01T03:11:35.798Z,1021.18
2018-09-01T03:12:35.857Z,1021.21
2018-09-01T03:13:35.922Z,1021.20
2018-09-01T03:14:35.990Z,1021.20
2018-09-01T03:15:36.054Z,1021.21
2018-09-01T03:16:36.110Z,1021.22
2018-09-01T03:17:36.170Z,1021.23
2018-09-01T03:18:36.238Z,1021.27
2018-09-01T03:19:36.402Z,1021.29
2018-09-01T03:20:36.359Z,1021.31
2018-09-01T03:21:36.420Z,1021.28
2018-09-01T03:22:36.482Z,1021.31
2018-09-01T03:23:36.546Z,1021.29
2018-09-01T03:24:36.615Z,1021.25
2018-09-01T03:25:36.674Z,1021.30
2018-09-01T03:26:36.730Z,1021.28
2018-09-01T03:27:36.794Z,1021.34
2018-09-01T03:28:36.858Z,1021.31
2018-09-01T03:29:36.926Z,1021.30
2018-09-01T03:30:36.987Z,1021.31
2018-09-01T03:31:37.047Z,1021.32
2018-09-01T03:32:37.107Z,1021.35
2018-09-01T03:33:37.171Z,1021.34
2018-09-01T03:34:37.230Z,1021.33
2018-09-01T03:35:37.442Z,1021.31
2018-09-01T03:36:37.363Z,1021.31
2018-09-01T03:37:37.418Z,1021.33
2018-09-01T03:38:37.483Z,1021.31
2018-09-01T03:39:37.543Z,1021.32
2018-09-01T03:40:37.611Z,1021.34
2018-09-01T03:41:37.671Z,1021.33
2018-09-01T03:42:37.730Z,1021.33
2018-09-01T03:43:37.791Z,1021.33
2018-09-01T03:44:37.863Z,1021.38
2018-09-01T03:45:37.923Z,1021.37
2018-09-01T03:46:37.988Z,1021.39
2018-09-01T03:47:38.049Z,1021.37
2018-09-01T03:48:38.104Z,1021.39
2018-09-01T03:49:38.165Z,1021.42
2018-09-01T03:50:38.380Z,1021.40
2018-09-01T03:51:38.287Z,1021.42
2018-09-01T03:52:38.352Z,1021.47
2018-09-01T03:53:38.416Z,1021.47
2018-09-01T03:54:38.480Z,1021.43
2018-09-01T03:55:38.544Z,1021.46
2018-09-01T03:56:38.608Z,1021.46
2018-09-01T03:57:38.667Z,1021.46
2018-09-01T03:58:38.724Z,1021.46
2018-09-01T03:59:38.794Z,1021.44
2018-09-01T04:00:38.855Z,1021.43
2018-09-01T04:01:38.920Z,1021.44
2018-09-01T04:02:38.971Z,1021.45
2018-09-01T04:03:39.045Z,1021.46
2018-09-01T04:04:39.100Z,1021.43
2018-09-01T04:05:39.208Z,1021.42
2018-09-01T04:06:39.316Z,1021.41
2018-09-01T04:07:39.285Z,1021.41
2018-09-01T04:08:39.348Z,1021.43
2018-09-01T04:09:39.412Z,1021.46
2018-09-01T04:10:39.472Z,1021.45
2018-09-01T04:11:39.541Z,1021.43
2018-09-01T04:12:39.607Z,1021.45
2018-09-01T04:13:39.657Z,1021.43
2018-09-01T04:14:39.720Z,1021.45
2018-09-01T04:15:39.781Z,1021.47
2018-09-01T04:16:39.852Z,1021.44
2018-09-01T04:17:39.912Z,1021.42
2018-09-01T04:18:39.968Z,1021.44
2018-09-01T04:19:40.033Z,1021.46
2018-09-01T04:20:40.092Z,1021.48
2018-09-01T04:21:40.248Z,1021.49
2018-09-01T04:22:40.226Z,1021.50
2018-09-01T04:23:40.280Z,1021.51
2018-09-01T04:24:40.341Z,1021.53
2018-09-01T04:25:40.405Z,1021.56
2018-09-01T04:26:40.473Z,1021.51
2018-09-01T04:27:40.533Z,1021.57
2018-09-01T04:28:40.596Z,1021.57
2018-09-01T04:29:40.653Z,1021.58
2018-09-01T04:30:40.713Z,1021.55
2018-09-01T04:31:40.786Z,1021.55
2018-09-01T04:32:40.845Z,1021.55
2018-09-01T04:33:40.902Z,1021.57
2018-09-01T04:34:40.965Z,1021.55
2018-09-01T04:35:41.025Z,1021.58
2018-09-01T04:36:41.108Z,1021.63
2018-09-01T04:37:41.150Z,1021.60
2018-09-01T04:38:41.220Z,1021.61
2018-09-01T04:39:41.275Z,1021.59
2018-09-01T04:40:41.338Z,1021.62
2018-09-01T04:41:41.413Z,1021.62
2018-09-01T04:42:41.466Z,1021.63
2018-09-01T04:43:41.522Z,1021.66
2018-09-01T04:44:41.586Z,1021.65
2018-09-01T04:45:41.650Z,1021.68
2018-09-01T04:46:41.718Z,1021.69
2018-09-01T04:47:41.778Z,1021.70
2018-09-01T04:48:41.837Z,1021.69
2018-09-01T04:49:41.900Z,1021.71
2018-09-01T04:50:41.958Z,1021.75
2018-09-01T04:51:42.026Z,1021.76
2018-09-01T04:52:42.090Z,1021.73
2018-09-01T04:53:42.149Z,1021.76
2018-09-01T04:54:42.206Z,1021.75
2018-09-01T04:55:42.271Z,1021.80
2018-09-01T04:56:42.339Z,1021.76
2018-09-01T04:57:42.403Z,1021.78
2018-09-01T04:58:42.457Z,1021.79
2018-09-01T04:59:42.519Z,1021.82
2018-09-01T05:00:42.642Z,1021.84
2018-09-01T05:01:42.648Z,1021.84
2018-09-01T05:02:42.711Z,1021.88
2018-09-01T05:03:42.763Z,1021.88
2018-09-01T05:04:42.831Z,1021.90
2018-09-01T05:05:42.891Z,1021.95
2018-09-01T05:06:42.959Z,1021.91
2018-09-01T05:07:43.023Z,1021.93
2018-09-01T05:08:43.079Z,1021.92
2018-09-01T05:09:43.139Z,1021.94
2018-09-01T05:10:43.203Z,1021.90
2018-09-01T05:11:43.371Z,1021.97
2018-09-01T05:12:43.329Z,1021.96
2018-09-01T05:13:43.399Z,1021.97
2018-09-01T05:14:43.451Z,1021.99
2018-09-01T05:15:43.513Z,1022.00
2018-09-01T05:16:43.583Z,1022.05
2018-09-01T05:17:43.643Z,1022.11
2018-09-01T05:18:43.699Z,1022.12
2018-09-01T05:19:43.768Z,1022.13
2018-09-01T05:20:43.823Z,1022.14
2018-09-01T05:21:43.895Z,1022.10
2018-09-01T05:22:43.956Z,1022.09
2018-09-01T05:23:44.014Z,1022.13
2018-09-01T05:24:44.072Z,1022.08
2018-09-01T05:25:44.136Z,1022.09
2018-09-01T05:26:44.352Z,1022.12
2018-09-01T05:27:44.264Z,1022.14
2018-09-01T05:28:44.324Z,1022.18
2018-09-01T05:29:44.384Z,1022.16
2018-09-01T05:30:44.444Z,1022.15
2018-09-01T05:31:44.516Z,1022.18
2018-09-01T05:32:44.579Z,1022.18
2018-09-01T05:33:44.633Z,1022.20
2018-09-01T05:34:44.696Z,1022.20
2018-09-01T05:35:44.756Z,1022.21
2018-09-01T05:36:44.832Z,1022.25
2018-09-01T05:37:44.888Z,1022.26
2018-09-01T05:38:44.945Z,1022.22
2018-09-01T05:39:45.004Z,1022.25
2018-09-01T05:40:45.068Z,1022.27
2018-09-01T05:41:45.144Z,1022.29
2018-09-01T05:42:45.192Z,1022.27
2018-09-01T05:43:45.285Z,1022.33
2018-09-01T05:44:45.316Z,1022.34
2018-09-01T05:45:45.385Z,1022.36
2018-09-01T05:46:45.448Z,1022.39
2018-09-01T05:47:45.520Z,1022.42
2018-09-01T05:48:45.568Z,1022.40
2018-09-01T05:49:45.628Z,1022.43
2018-09-01T05:50:45.745Z,1022.46
2018-09-01T05:51:45.760Z,1022.40
2018-09-01T05:52:45.830Z,1022.43
2018-09-01T05:53:45.877Z,1022.45
2018-09-01T05:54:45.940Z,1022.47
2018-09-01T05:55:46.005Z,1022.44
2018-09-01T05:56:46.345Z,1022.43
2018-09-01T05:57:46.133Z,1022.43
2018-09-01T05:58:46.189Z,1022.42
2018-09-01T05:59:46.264Z,1022.45
2018-09-01T06:00:46.317Z,1022.51
2018-09-01T06:01:46.385Z,1022.48
2018-09-01T06:02:46.449Z,1022.51
2018-09-01T06:03:46.515Z,1022.52
2018-09-01T06:04:46.565Z,1022.52
2018-09-01T06:05:46.632Z,1022.52
2018-09-01T06:06:46.697Z,1022.53
2018-09-01T06:07:46.758Z,1022.55
2018-09-01T06:08:46.817Z,1022.60
2018-09-01T06:09:46.877Z,1022.56
2018-09-01T06:10:46.943Z,1022.59
2018-09-01T06:11:47.013Z,1022.57
2018-09-01T06:12:47.073Z,1022.59
2018-09-01T06:13:47.129Z,1022.59
2018-09-01T06:14:47.189Z,1022.61
2018-09-01T06:15:47.261Z,1022.60
2018-09-01T06:16:47.321Z,1022.61
2018-09-01T06:17:47.532Z,1022.62
2018-09-01T06:18:47.441Z,1022.65
2018-09-01T06:19:47.506Z,1022.62
2018-09-01T06:20:47.566Z,1022.66
2018-09-01T06:21:47.634Z,1022.69
2018-09-01T06:22:47.698Z,1022.70
2018-09-01T06:23:47.824Z,1022.71
2018-09-01T06:24:47.820Z,1022.73
2018-09-01T06:25:47.878Z,1022.73
2018-09-01T06:26:47.950Z,1022.77
2018-09-01T06:27:48.010Z,1022.78
2018-09-01T06:28:48.070Z,1022.79
2018-09-01T06:29:48.130Z,1022.78
2018-09-01T06:30:48.194Z,1022.83
2018-09-01T06:31:48.258Z,1022.78
2018-09-01T06:32:48.596Z,1022.86
2018-09-01T06:33:48.382Z,1022.84
2018-09-01T06:34:48.446Z,1022.84
2018-09-01T06:35:48.506Z,1022.82
2018-09-01T06:36:48.570Z,1022.84
2018-09-01T06:37:48.638Z,1022.84
2018-09-01T06:38:48.702Z,1022.85
2018-09-01T06:39:48.758Z,1022.86
2018-09-01T06:40:48.823Z,1022.88
2018-09-01T06:41:48.891Z,1022.85
2018-09-01T06:42:48.955Z,1022.82
2018-09-01T06:43:49.018Z,1022.83
2018-09-01T06:44:49.075Z,1022.82
2018-09-01T06:45:49.134Z,1022.84
2018-09-01T06:46:49.199Z,1022.88
2018-09-01T06:47:49.294Z,1022.88
2018-09-01T06:48:49.331Z,1022.91
2018-09-01T06:49:49.392Z,1022.92
2018-09-01T06:50:49.451Z,1022.88
2018-09-01T06:51:49.515Z,1022.91
2018-09-01T06:52:49.591Z,1022.90
2018-09-01T06:53:49.663Z,1022.91
2018-09-01T06:54:49.703Z,1022.93
2018-09-01T06:55:49.767Z,1022.91
2018-09-01T06:56:49.839Z,1022.91
2018-09-01T06:57:49.899Z,1022.92
2018-09-01T06:58:49.963Z,1022.92
2018-09-01T06:59:50.020Z,1022.97
2018-09-01T07:00:50.083Z,1022.93
2018-09-01T07:01:50.144Z,1022.92
2018-09-01T07:02:50.241Z,1022.96
2018-09-01T07:03:50.272Z,1022.96
2018-09-01T07:04:50.335Z,1022.92
2018-09-01T07:05:50.403Z,1022.97
2018-09-01T07:06:50.460Z,1022.95
2018-09-01T07:07:50.531Z,1022.92
2018-09-01T07:08:50.667Z,1022.88
2018-09-01T07:09:50.656Z,1022.89
2018-09-01T07:10:50.716Z,1022.87
2018-09-01T07:11:50.775Z,1022.95
2018-09-01T07:12:50.847Z,1022.93
2018-09-01T07:13:50.912Z,1022.98
2018-09-01T07:14:50.968Z,1023.66
2018-09-01T07:15:51.031Z,1024.49
2018-09-01T07:16:51.096Z,1024.95
2018-09-01T07:17:51.350Z,1025.01
2018-09-01T07:18:51.224Z,1025.03
2018-09-01T07:19:51.287Z,1025.07
2018-09-01T07:20:51.356Z,1025.06
2018-09-01T07:21:51.420Z,1025.04
2018-09-01T07:22:51.491Z,1025.06
2018-09-01T07:23:51.560Z,1025.04
2018-09-01T07:24:51.625Z,1025.10
2018-09-01T07:25:51.688Z,1025.01
2018-09-01T07:26:51.756Z,1025.01
2018-09-01T07:27:51.828Z,1025.04
2018-09-01T07:28:51.900Z,1025.02
2018-09-01T07:29:51.966Z,1025.05
2018-09-01T07:30:52.249Z,1025.06
2018-09-01T07:31:52.101Z,1025.08
2018-09-01T07:32:52.441Z,1025.09
2018-09-01T07:33:52.240Z,1025.03
2018-09-01T07:34:52.308Z,1025.03
2018-09-01T07:35:52.380Z,1025.08
2018-09-01T07:36:52.457Z,1025.03
2018-09-01T07:37:52.532Z,1025.12
2018-09-01T07:38:52.600Z,1025.12
2018-09-01T07:39:52.664Z,1025.25
2018-09-01T07:40:52.737Z,1025.18
2018-09-01T07:41:52.808Z,1025.17
2018-09-01T07:42:52.890Z,1025.21
2018-09-01T07:43:52.961Z,1025.24
2018-09-01T07:44:53.025Z,1025.30
2018-09-01T07:45:53.103Z,1025.35
2018-09-01T07:46:53.173Z,1025.30
2018-09-01T07:47:53.757Z,1025.31
2018-09-01T07:48:53.317Z,1025.28
2018-09-01T07:49:53.438Z,1025.34
2018-09-01T07:50:53.468Z,1025.38
2018-09-01T07:51:53.541Z,1025.42
2018-09-01T07:52:53.617Z,1025.44
2018-09-01T07:53:53.777Z,1025.45
2018-09-01T07:54:53.761Z,1025.42
2018-09-01T07:55:53.870Z,1025.40
2018-09-01T07:56:53.913Z,1025.39
2018-09-01T07:57:53.993Z,1025.47
2018-09-01T07:58:54.065Z,1025.46
2018-09-01T07:59:54.141Z,1025.35
2018-09-01T08:00:54.213Z,1025.28
2018-09-01T08:01:54.286Z,1025.32
2018-09-01T08:02:54.361Z,1025.20
2018-09-01T08:03:54.441Z,1024.98
2018-09-01T08:04:54.517Z,1025.05
2018-09-01T08:05:54.586Z,1025.18
2018-09-01T08:06:54.662Z,1025.19
2018-09-01T08:07:54.738Z,1025.16
2018-09-01T08:08:54.825Z,1025.04
2018-09-01T08:09:54.897Z,1025.01
2018-09-01T08:10:54.970Z,1024.99
2018-09-01T08:11:55.042Z,1024.97
2018-09-01T08:12:55.118Z,1024.97
2018-09-01T08:13:55.587Z,1024.94
2018-09-01T08:14:55.274Z,1024.90
2018-09-01T08:15:55.346Z,1024.93
2018-09-01T08:16:55.422Z,1024.90
2018-09-01T08:17:55.498Z,1024.94
2018-09-01T08:18:55.582Z,1024.87
2018-09-01T08:19:55.658Z,1024.86
2018-09-01T08:20:55.734Z,1024.84
2018-09-01T08:21:55.805Z,1024.84
2018-09-01T08:22:55.887Z,1024.79
2018-09-01T08:23:55.962Z,1024.74
2018-09-01T08:24:56.043Z,1024.72
2018-09-01T08:25:56.129Z,1024.70
2018-09-01T08:26:56.190Z,1024.71
2018-09-01T08:27:56.266Z,1024.67
2018-09-01T08:28:56.359Z,1024.66
2018-09-01T08:29:56.414Z,1024.70
2018-09-01T08:30:56.491Z,1024.72
2018-09-01T08:31:56.567Z,1024.65
2018-09-01T08:32:56.647Z,1024.65
2018-09-01T08:33:56.756Z,1024.67
2018-09-01T08:34:56.803Z,1024.66
2018-09-01T08:35:56.878Z,1024.62
2018-09-01T08:36:56.950Z,1024.66
2018-09-01T08:37:57.027Z,1024.64
2018-09-01T08:38:57.191Z,1024.65
2018-09-01T08:39:57.178Z,1024.66
2018-09-01T08:40:57.259Z,1024.62
2018-09-01T08:41:57.335Z,1024.70
2018-09-01T08:42:57.410Z,1024.74
2018-09-01T08:43:57.498Z,1024.77
2018-09-01T08:44:57.559Z,1024.72
2018-09-01T08:45:57.635Z,1024.68
2018-09-01T08:46:57.710Z,1024.75
2018-09-01T08:47:57.783Z,1024.75
2018-09-01T08:48:57.879Z,1024.71
2018-09-01T08:49:57.943Z,1024.55
2018-09-01T08:50:58.012Z,1024.41
2018-09-01T08:51:58.083Z,1024.39
2018-09-01T08:52:58.163Z,1024.37
2018-09-01T08:53:58.600Z,1024.37
2018-09-01T08:54:58.311Z,1024.34
2018-09-01T08:55:58.388Z,1024.36
2018-09-01T08:56:58.463Z,1024.33
2018-09-01T08:57:58.535Z,1024.38
2018-09-01T08:58:58.619Z,1024.39
2018-09-01T08:59:58.695Z,1024.45
2018-09-01T09:00:58.764Z,1024.52
2018-09-01T09:01:58.840Z,1024.45
2018-09-01T09:02:58.911Z,1024.43
2018-09-01T09:03:58.992Z,1024.38
2018-09-01T09:04:59.068Z,1024.38
2018-09-01T09:05:59.140Z,1024.35
2018-09-01T09:06:59.212Z,1024.33
2018-09-01T09:07:59.288Z,1024.37
2018-09-01T09:08:59.364Z,1024.33
2018-09-01T09:09:59.456Z,1024.37
2018-09-01T09:10:59.509Z,1024.31
2018-09-01T09:11:59.584Z,1024.35
2018-09-01T09:12:59.656Z,1024.26
2018-09-01T09:13:59.732Z,1024.24
2018-09-01T09:14:59.829Z,1024.24
2018-09-01T09:15:59.896Z,1024.26
2018-09-01T09:16:59.984Z,1024.22
2018-09-01T09:18:00.028Z,1024.27
2018-09-01T09:19:00.120Z,1024.26
2018-09-01T09:20:00.288Z,1024.33
2018-09-01T09:21:00.248Z,1024.29
2018-09-01T09:22:00.324Z,1024.28
2018-09-01T09:23:00.406Z,1024.27
2018-09-01T09:24:00.476Z,1024.24
2018-09-01T09:25:00.556Z,1024.24
2018-09-01T09:26:00.629Z,1024.28
2018-09-01T09:27:00.693Z,1024.26
2018-09-01T09:28:00.775Z,1024.28
2018-09-01T09:29:00.840Z,1024.28
2018-09-01T09:30:00.921Z,1024.21
2018-09-01T09:31:00.993Z,1024.26
2018-09-01T09:32:01.060Z,1024.32
2018-09-01T09:33:01.137Z,1024.29
2018-09-01T09:34:01.204Z,1024.26
2018-09-01T09:35:01.545Z,1024.23
2018-09-01T09:36:01.357Z,1024.20
2018-09-01T09:37:01.425Z,1024.25
2018-09-01T09:38:01.497Z,1024.24
2018-09-01T09:39:01.572Z,1024.22
2018-09-01T09:40:01.645Z,1024.21
2018-09-01T09:41:01.720Z,1024.19
2018-09-01T09:42:01.914Z,1024.12
2018-09-01T09:43:01.857Z,1024.15
2018-09-01T09:44:01.932Z,1024.11
2018-09-01T09:45:02.009Z,1024.05
2018-09-01T09:46:02.077Z,1024.07
2018-09-01T09:47:02.145Z,1024.08
2018-09-01T09:48:02.217Z,1024.13
2018-09-01T09:49:02.289Z,1024.07
2018-09-01T09:50:02.385Z,1024.06
2018-09-01T09:51:02.429Z,1024.05
2018-09-01T09:52:02.501Z,1024.05
2018-09-01T09:53:02.658Z,1024.04
2018-09-01T09:54:02.645Z,1024.07
2018-09-01T09:55:02.721Z,1024.05
2018-09-01T09:56:02.794Z,1024.03
2018-09-01T09:57:02.863Z,1024.05
2018-09-01T09:58:02.929Z,1024.02
2018-09-01T09:59:02.997Z,1024.03
2018-09-01T10:00:03.337Z,1024.04
2018-09-01T10:01:03.173Z,1023.97
2018-09-01T10:02:03.209Z,1024.00
2018-09-01T10:03:03.281Z,1023.99
2018-09-01T10:04:03.354Z,1024.01
2018-09-01T10:05:03.439Z,1023.99
2018-09-01T10:06:03.503Z,1024.03
2018-09-01T10:07:03.566Z,1023.98
2018-09-01T10:08:03.652Z,1023.97
2018-09-01T10:09:03.714Z,1023.96
2018-09-01T10:10:03.786Z,1023.93
2018-09-01T10:11:03.894Z,1023.96
2018-09-01T10:12:03.942Z,1023.92
2018-09-01T10:13:03.990Z,1023.95
2018-09-01T10:14:04.063Z,1023.91
2018-09-01T10:15:04.414Z,1023.91
2018-09-01T10:16:04.209Z,1023.87
2018-09-01T10:17:04.274Z,1023.86
2018-09-01T10:18:04.344Z,1023.86
2018-09-01T10:19:04.414Z,1023.83
2018-09-01T10:20:04.560Z,1023.86
2018-09-01T10:21:04.568Z,1023.78
2018-09-01T10:22:04.627Z,1023.80
2018-09-01T10:23:04.695Z,1023.81
2018-09-01T10:24:04.771Z,1023.84
2018-09-01T10:25:04.843Z,1023.88
2018-09-01T10:26:04.915Z,1023.89
2018-09-01T10:27:05.034Z,1023.89
2018-09-01T10:28:05.053Z,1023.93
2018-09-01T10:29:05.116Z,1023.88
2018-09-01T10:30:05.188Z,1023.86
2018-09-01T10:31:05.347Z,1023.82
2018-09-01T10:32:05.327Z,1023.83
2018-09-01T10:33:05.399Z,1023.82
2018-09-01T10:34:05.514Z,1023.85
2018-09-01T10:35:05.540Z,1023.86
2018-09-01T10:36:05.611Z,1023.83
2018-09-01T10:37:05.683Z,1023.84
2018-09-01T10:38:05.747Z,1023.86
2018-09-01T10:39:05.816Z,1023.83
2018-09-01T10:40:05.891Z,1023.90
2018-09-01T10:41:05.963Z,1023.89
2018-09-01T10:42:06.031Z,1023.87
2018-09-01T10:43:06.095Z,1023.85
2018-09-01T10:44:06.167Z,1023.85
2018-09-01T10:45:06.236Z,1023.83
2018-09-01T10:46:06.303Z,1023.85
2018-09-01T10:47:06.475Z,1023.74
2018-09-01T10:48:06.459Z,1023.81
2018-09-01T10:49:06.515Z,1023.83
2018-09-01T10:50:06.588Z,1023.88
2018-09-01T10:51:06.659Z,1023.82
2018-09-01T10:52:06.739Z,1023.79
2018-09-01T10:53:06.803Z,1023.78
2018-09-01T10:54:06.871Z,1023.72
2018-09-01T10:55:06.936Z,1023.81
2018-09-01T10:56:07.008Z,1023.80
2018-09-01T10:57:07.184Z,1023.76
2018-09-01T10:58:07.152Z,1023.73
2018-09-01T10:59:07.422Z,1023.75
2018-09-01T11:00:07.290Z,1023.78
2018-09-01T11:01:07.356Z,1023.83
2018-09-01T11:02:07.432Z,1023.77
2018-09-01T11:03:07.558Z,1023.77
2018-09-01T11:04:07.570Z,1023.77
2018-09-01T11:05:07.690Z,1023.76
2018-09-01T11:06:07.708Z,1023.77
2018-09-01T11:07:07.780Z,1023.81
2018-09-01T11:08:07.851Z,1023.79
2018-09-01T11:09:07.912Z,1023.80
2018-09-01T11:10:07.988Z,1023.76
2018-09-01T11:11:08.052Z,1023.78
2018-09-01T11:12:08.234Z,1023.70
2018-09-01T11:13:08.192Z,1023.63
2018-09-01T11:14:08.260Z,1023.61
2018-09-01T11:15:08.329Z,1023.56
2018-09-01T11:16:08.413Z,1023.55
2018-09-01T11:17:08.468Z,1023.55
2018-09-01T11:18:08.540Z,1023.48
2018-09-01T11:19:08.600Z,1023.50
2018-09-01T11:20:08.713Z,1023.54
2018-09-01T11:21:08.740Z,1023.51
2018-09-01T11:22:08.812Z,1023.53
2018-09-01T11:23:08.880Z,1023.53
2018-09-01T11:24:08.944Z,1023.50
2018-09-01T11:25:09.012Z,1023.56
2018-09-01T11:26:09.081Z,1023.53
2018-09-01T11:27:09.256Z,1023.56
2018-09-01T11:28:09.303Z,1023.52
2018-09-01T11:29:09.284Z,1023.52
2018-09-01T11:30:09.353Z,1023.51
2018-09-01T11:31:09.421Z,1023.50
2018-09-01T11:32:09.496Z,1023.47
2018-09-01T11:33:09.568Z,1023.48
2018-09-01T11:34:09.638Z,1023.44
2018-09-01T11:35:09.697Z,1023.46
2018-09-01T11:36:09.768Z,1023.45
2018-09-01T11:37:09.841Z,1023.46
2018-09-01T11:38:09.909Z,1023.52
2018-09-01T11:39:09.969Z,1023.51
2018-09-01T11:40:10.037Z,1023.52
2018-09-01T11:41:10.105Z,1023.52
2018-09-01T11:42:10.445Z,1023.51
2018-09-01T11:43:10.492Z,1023.54
2018-09-01T11:44:10.309Z,1023.45
2018-09-01T11:45:10.381Z,1023.44
2018-09-01T11:46:10.460Z,1023.44
2018-09-01T11:47:10.536Z,1023.43
2018-09-01T11:48:10.589Z,1023.51
2018-09-01T11:49:10.654Z,1023.48
2018-09-01T11:50:10.794Z,1023.52
2018-09-01T11:51:10.789Z,1023.53
2018-09-01T11:52:10.895Z,1023.47
2018-09-01T11:53:10.971Z,1023.46
2018-09-01T11:54:10.999Z,1023.47
2018-09-01T11:55:11.066Z,1023.50
2018-09-01T11:56:11.134Z,1023.53
2018-09-01T11:57:11.247Z,1023.47
2018-09-01T11:58:11.275Z,1023.44
2018-09-01T11:59:11.342Z,1023.44
2018-09-01T12:00:11.410Z,1023.42
2018-09-01T12:01:11.478Z,1023.39
2018-09-01T12:02:11.568Z,1023.38
2018-09-01T12:03:11.626Z,1023.38
2018-09-01T12:04:11.682Z,1023.41
2018-09-01T12:05:11.750Z,1023.37
2018-09-01T12:06:11.851Z,1023.38